createdAt,value
2022-12-28T00:00:31.628Z,91.22
2022-12-28T00:01:31.652Z,91.74
2022-12-28T00:02:31.683Z,91.64
2022-12-28T00:03:31.572Z,91.27
2022-12-28T00:04:31.573Z,91.58
2022-12-28T00:05:31.544Z,91.58
2022-12-28T00:06:31.541Z,91.02
2022-12-28T00:07:31.593Z,91.22
2022-12-28T00:08:31.536Z,91.58
2022-12-28T00:09:31.510Z,91.43
2022-12-28T00:11:08.211Z,91.16
2022-12-28T00:11:32.488Z,92.16
2022-12-28T00:12:31.491Z,91.99
2022-12-28T00:13:31.461Z,91.43
2022-12-28T00:14:31.506Z,91.68
2022-12-28T00:15:31.443Z,91.43
2022-12-28T00:16:31.565Z,91.43
2022-12-28T00:17:31.418Z,91.22
2022-12-28T00:18:31.416Z,91.22
2022-12-28T00:19:31.416Z,91.64
2022-12-28T00:20:31.379Z,91.43
2022-12-28T00:21:31.384Z,91.58
2022-12-28T00:22:31.359Z,91.22
2022-12-28T00:23:31.367Z,91.74
2022-12-28T00:24:31.368Z,91.74
2022-12-28T00:25:31.352Z,91.64
2022-12-28T00:26:31.336Z,91.22
2022-12-28T00:27:31.313Z,90.91
2022-12-28T00:28:31.331Z,91.12
2022-12-28T00:29:31.321Z,91.33
2022-12-28T00:30:31.273Z,91.22
2022-12-28T00:31:31.326Z,91.33
2022-12-28T00:32:31.251Z,91.53
2022-12-28T00:33:31.270Z,91.53
2022-12-28T00:34:31.262Z,91.47
2022-12-28T00:35:31.216Z,91.64
2022-12-28T00:37:08.701Z,91.27
2022-12-28T00:37:32.204Z,91.64
2022-12-28T00:38:31.221Z,91.43
2022-12-28T00:39:31.187Z,90.95
2022-12-28T00:40:31.159Z,91.22
2022-12-28T00:41:31.148Z,91.22
2022-12-28T00:42:31.150Z,91.12
2022-12-28T00:43:31.131Z,91.16
2022-12-28T00:44:31.155Z,91.33
2022-12-28T00:45:31.193Z,91.22
2022-12-28T00:46:31.095Z,91.22
2022-12-28T00:47:31.090Z,90.91
2022-12-28T00:48:31.087Z,91.37
2022-12-28T00:49:31.088Z,91.58
2022-12-28T00:50:31.058Z,91.33
2022-12-28T00:51:31.060Z,91.47
2022-12-28T00:52:31.031Z,91.33
2022-12-28T00:53:31.026Z,91.58
2022-12-28T00:54:31.034Z,91.64
2022-12-28T00:55:31.025Z,91.06
2022-12-28T00:56:31.014Z,91.16
2022-12-28T00:57:30.975Z,91.58
2022-12-28T00:58:30.961Z,91.27
2022-12-28T00:59:30.982Z,91.27
2022-12-28T01:00:30.954Z,91.58
2022-12-28T01:01:31.157Z,91.16
2022-12-28T01:02:30.967Z,91.27
2022-12-28T01:03:30.926Z,92.20
2022-12-28T01:04:30.916Z,91.68
2022-12-28T01:05:30.918Z,92.10
2022-12-28T01:06:30.896Z,92.10
2022-12-28T01:07:30.874Z,91.27
2022-12-28T01:08:30.880Z,91.16
2022-12-28T01:09:30.864Z,91.22
2022-12-28T01:10:30.832Z,91.16
2022-12-28T01:11:30.864Z,91.16
2022-12-28T01:12:34.685Z,91.68
2022-12-28T01:13:31.796Z,91.27
2022-12-28T01:14:30.815Z,90.95
2022-12-28T01:15:30.780Z,91.37
2022-12-28T01:16:30.815Z,92.41
2022-12-28T01:17:30.814Z,92.20
2022-12-28T01:18:30.757Z,91.95
2022-12-28T01:19:30.767Z,92.20
2022-12-28T01:20:30.733Z,91.89
2022-12-28T01:21:30.710Z,91.53
2022-12-28T01:22:30.708Z,91.64
2022-12-28T01:23:30.688Z,91.22
2022-12-28T01:24:30.700Z,91.33
2022-12-28T01:25:30.673Z,91.27
2022-12-28T01:26:30.694Z,91.12
2022-12-28T01:27:30.659Z,91.22
2022-12-28T01:28:30.644Z,91.43
2022-12-28T01:29:30.667Z,91.53
2022-12-28T01:30:30.617Z,91.02
2022-12-28T01:31:30.638Z,91.12
2022-12-28T01:32:30.587Z,91.49
2022-12-28T01:33:30.586Z,91.22
2022-12-28T01:34:30.567Z,91.28
2022-12-28T01:35:30.581Z,90.45
2022-12-28T01:36:30.551Z,90.81
2022-12-28T01:37:30.533Z,91.02
2022-12-28T01:38:30.527Z,90.87
2022-12-28T01:39:30.535Z,90.77
2022-12-28T01:40:30.497Z,90.56
2022-12-28T01:41:30.512Z,90.97
2022-12-28T01:42:30.480Z,91.18
2022-12-28T01:43:30.500Z,90.56
2022-12-28T01:44:30.452Z,90.25
2022-12-28T01:45:30.506Z,90.35
2022-12-28T01:46:30.446Z,90.45
2022-12-28T01:47:30.436Z,91.18
2022-12-28T01:48:30.407Z,90.45
2022-12-28T01:49:30.480Z,90.97
2022-12-28T01:50:30.429Z,91.08
2022-12-28T01:51:30.404Z,90.35
2022-12-28T01:52:30.367Z,90.45
2022-12-28T01:53:30.361Z,90.56
2022-12-28T01:54:30.402Z,90.25
2022-12-28T01:55:30.351Z,90.66
2022-12-28T01:56:30.348Z,90.25
2022-12-28T01:57:30.310Z,90.45
2022-12-28T01:58:30.307Z,91.08
2022-12-28T01:59:30.334Z,91.18
2022-12-28T02:02:51.765Z,90.87
2022-12-28T02:03:51.698Z,90.87
2022-12-28T02:04:51.687Z,90.20
2022-12-28T02:05:51.678Z,90.52
2022-12-28T02:06:51.692Z,90.52
2022-12-28T02:07:51.676Z,90.14
2022-12-28T02:08:51.653Z,90.52
2022-12-28T02:10:41.422Z,90.31
2022-12-28T02:10:52.633Z,90.14
2022-12-28T02:11:51.619Z,90.04
2022-12-28T02:12:51.694Z,91.18
2022-12-28T02:13:51.596Z,91.08
2022-12-28T02:14:51.596Z,90.25
2022-12-28T02:15:51.583Z,90.87
2022-12-28T02:16:51.563Z,90.52
2022-12-28T02:17:51.566Z,90.25
2022-12-28T02:18:51.536Z,91.18
2022-12-28T02:19:51.543Z,90.77
2022-12-28T02:20:51.659Z,91.28
2022-12-28T02:21:51.499Z,91.60
2022-12-28T02:22:51.512Z,91.49
2022-12-28T02:23:51.500Z,91.08
2022-12-28T02:25:12.831Z,90.93
2022-12-28T02:25:52.476Z,90.93
2022-12-28T02:26:51.459Z,90.72
2022-12-28T02:27:51.431Z,90.97
2022-12-28T02:28:51.447Z,91.28
2022-12-28T02:29:51.411Z,91.39
2022-12-28T02:30:51.468Z,91.60
2022-12-28T02:31:51.397Z,91.18
2022-12-28T02:32:51.370Z,90.97
2022-12-28T02:33:51.383Z,91.18
2022-12-28T02:34:51.370Z,91.60
2022-12-28T02:35:51.359Z,91.91
2022-12-28T02:36:51.359Z,91.91
2022-12-28T02:37:51.366Z,90.97
2022-12-28T02:38:51.560Z,91.08
2022-12-28T02:39:51.308Z,91.66
2022-12-28T02:40:51.341Z,92.18
2022-12-28T02:41:51.283Z,91.80
2022-12-28T02:42:51.323Z,91.49
2022-12-28T02:43:51.266Z,92.18
2022-12-28T02:44:51.299Z,91.14
2022-12-28T02:45:51.276Z,91.39
2022-12-28T02:46:51.273Z,91.24
2022-12-28T02:47:51.217Z,92.18
2022-12-28T02:48:51.213Z,92.07
2022-12-28T02:49:51.195Z,91.86
2022-12-28T02:50:51.214Z,92.18
2022-12-28T02:51:51.198Z,91.45
2022-12-28T02:52:51.163Z,91.76
2022-12-28T02:53:51.152Z,92.07
2022-12-28T02:54:51.161Z,91.24
2022-12-28T02:55:51.127Z,91.35
2022-12-28T02:56:51.116Z,91.14
2022-12-28T02:57:51.108Z,91.24
2022-12-28T02:58:51.125Z,91.35
2022-12-28T02:59:51.079Z,92.18
2022-12-28T03:00:51.072Z,91.24
2022-12-28T03:01:51.177Z,91.55
2022-12-28T03:02:51.200Z,91.35
2022-12-28T03:03:51.046Z,91.20
2022-12-28T03:04:51.067Z,90.89
2022-12-28T03:05:51.122Z,91.30
2022-12-28T03:06:51.037Z,90.68
2022-12-28T03:07:51.012Z,90.78
2022-12-28T03:08:51.016Z,91.09
2022-12-28T03:09:50.996Z,90.89
2022-12-28T03:10:50.965Z,90.89
2022-12-28T03:11:50.960Z,91.26
2022-12-28T03:12:50.938Z,91.16
2022-12-28T03:13:50.956Z,90.44
2022-12-28T03:14:50.985Z,91.05
2022-12-28T03:15:50.927Z,90.74
2022-12-28T03:16:50.901Z,90.78
2022-12-28T03:17:50.878Z,90.64
2022-12-28T03:18:50.898Z,91.26
2022-12-28T03:19:50.899Z,91.05
2022-12-28T03:20:50.858Z,90.64
2022-12-28T03:21:50.856Z,91.36
2022-12-28T03:22:50.932Z,91.57
2022-12-28T03:23:50.953Z,91.16
2022-12-28T03:24:51.228Z,91.26
2022-12-28T03:25:50.795Z,91.05
2022-12-28T03:26:50.786Z,91.67
2022-12-28T03:27:50.772Z,91.78
2022-12-28T03:28:50.777Z,91.88
2022-12-28T03:29:50.784Z,92.71
2022-12-28T03:30:50.804Z,92.61
2022-12-28T03:31:50.744Z,93.43
2022-12-28T03:32:50.718Z,93.23
2022-12-28T03:33:50.723Z,92.77
2022-12-28T03:34:50.741Z,92.87
2022-12-28T03:35:50.689Z,93.18
2022-12-28T03:36:50.671Z,93.39
2022-12-28T03:37:50.670Z,92.87
2022-12-28T03:38:50.782Z,93.80
2022-12-28T03:39:50.640Z,93.60
2022-12-28T03:40:50.644Z,93.64
2022-12-28T03:41:59.200Z,94.06
2022-12-28T03:42:50.627Z,93.85
2022-12-28T03:43:50.616Z,93.70
2022-12-28T03:44:50.578Z,93.60
2022-12-28T03:45:50.573Z,93.08
2022-12-28T03:46:50.584Z,93.64
2022-12-28T03:47:50.550Z,93.60
2022-12-28T03:48:50.533Z,93.70
2022-12-28T03:49:50.581Z,93.49
2022-12-28T03:50:50.574Z,93.91
2022-12-28T03:51:50.519Z,93.60
2022-12-28T03:52:50.514Z,93.60
2022-12-28T03:53:50.508Z,93.60
2022-12-28T03:54:50.493Z,94.12
2022-12-28T03:55:50.458Z,93.49
2022-12-28T03:56:50.456Z,93.70
2022-12-28T03:57:50.441Z,93.85
2022-12-28T03:58:50.425Z,93.91
2022-12-28T03:59:50.442Z,93.18
2022-12-28T04:00:50.413Z,93.91
2022-12-28T04:01:50.498Z,94.01
2022-12-28T04:02:50.477Z,93.80
2022-12-28T04:03:50.388Z,93.60
2022-12-28T04:04:50.385Z,93.80
2022-12-28T04:05:50.347Z,94.12
2022-12-28T04:06:50.356Z,93.60
2022-12-28T04:07:50.326Z,93.29
2022-12-28T04:08:50.330Z,93.49
2022-12-28T04:09:50.327Z,93.14
2022-12-28T04:10:50.292Z,93.45
2022-12-28T04:11:50.341Z,93.45
2022-12-28T04:12:50.277Z,93.24
2022-12-28T04:13:50.268Z,93.24
2022-12-28T04:14:50.278Z,93.70
2022-12-28T04:15:50.270Z,92.83
2022-12-28T04:16:50.226Z,93.45
2022-12-28T04:17:50.221Z,93.45
2022-12-28T04:18:50.225Z,93.24
2022-12-28T04:19:50.213Z,93.24
2022-12-28T04:20:50.178Z,92.87
2022-12-28T04:21:50.195Z,94.12
2022-12-28T04:22:50.189Z,94.12
2022-12-28T04:23:50.148Z,93.49
2022-12-28T04:24:50.196Z,93.29
2022-12-28T04:25:50.154Z,93.49
2022-12-28T04:26:50.123Z,93.29
2022-12-28T04:27:50.107Z,93.29
2022-12-28T04:28:50.098Z,93.60
2022-12-28T04:29:50.081Z,93.49
2022-12-28T04:30:50.079Z,93.80
2022-12-28T04:31:50.081Z,93.80
2022-12-28T04:32:50.050Z,94.12
2022-12-28T04:33:50.039Z,94.12
2022-12-28T04:34:50.078Z,93.60
2022-12-28T04:35:50.051Z,94.01
2022-12-28T04:36:50.006Z,94.01
2022-12-28T04:37:49.990Z,93.60
2022-12-28T04:38:50.009Z,93.91
2022-12-28T04:39:55.955Z,93.29
2022-12-28T04:40:50.966Z,93.39
2022-12-28T04:41:49.981Z,93.70
2022-12-28T04:42:49.943Z,93.29
2022-12-28T04:43:49.961Z,93.87
2022-12-28T04:44:49.924Z,94.01
2022-12-28T04:45:49.906Z,93.91
2022-12-28T04:46:49.975Z,93.60
2022-12-28T04:47:49.891Z,93.49
2022-12-28T04:48:49.892Z,93.80
2022-12-28T04:49:49.899Z,93.66
2022-12-28T04:50:49.894Z,93.60
2022-12-28T04:51:49.853Z,93.70
2022-12-28T04:52:49.874Z,93.66
2022-12-28T04:53:49.828Z,94.07
2022-12-28T04:54:49.832Z,93.04
2022-12-28T04:55:49.797Z,93.35
2022-12-28T04:56:49.840Z,93.04
2022-12-28T04:57:49.790Z,93.04
2022-12-28T04:58:49.765Z,93.35
2022-12-28T04:59:49.767Z,93.24
2022-12-28T05:00:49.800Z,93.55
2022-12-28T05:01:49.862Z,93.55
2022-12-28T05:02:49.748Z,93.14
2022-12-28T05:03:54.956Z,93.29
2022-12-28T05:04:50.703Z,93.39
2022-12-28T05:05:49.689Z,93.91
2022-12-28T05:06:49.695Z,93.55
2022-12-28T05:07:49.658Z,93.35
2022-12-28T05:08:49.654Z,93.14
2022-12-28T05:09:49.639Z,93.24
2022-12-28T05:10:49.649Z,93.35
2022-12-28T05:11:49.636Z,92.99
2022-12-28T05:12:49.609Z,93.14
2022-12-28T05:13:49.599Z,93.24
2022-12-28T05:14:49.588Z,93.35
2022-12-28T05:15:49.652Z,93.35
2022-12-28T05:16:49.583Z,93.04
2022-12-28T05:17:49.545Z,93.35
2022-12-28T05:18:49.546Z,93.04
2022-12-28T05:19:49.528Z,93.35
2022-12-28T05:20:49.523Z,93.51
2022-12-28T05:21:49.507Z,92.58
2022-12-28T05:22:49.525Z,92.48
2022-12-28T05:23:49.492Z,92.99
2022-12-28T05:24:49.470Z,92.79
2022-12-28T05:25:49.484Z,93.30
2022-12-28T05:26:49.478Z,92.79
2022-12-28T05:27:49.438Z,92.79
2022-12-28T05:28:49.433Z,93.10
2022-12-28T05:29:49.444Z,92.89
2022-12-28T05:30:49.406Z,92.99
2022-12-28T05:31:49.440Z,92.99
2022-12-28T05:32:49.409Z,92.44
2022-12-28T05:33:49.370Z,92.68
2022-12-28T05:34:49.384Z,92.64
2022-12-28T05:35:49.347Z,91.82
2022-12-28T05:36:49.346Z,91.40
2022-12-28T05:37:49.345Z,91.82
2022-12-28T05:38:49.324Z,91.40
2022-12-28T05:39:49.356Z,91.20
2022-12-28T05:40:49.296Z,92.08
2022-12-28T05:41:49.283Z,92.13
2022-12-28T05:42:51.625Z,92.13
2022-12-28T05:43:49.293Z,91.36
2022-12-28T05:44:49.275Z,92.33
2022-12-28T05:45:49.247Z,92.33
2022-12-28T05:46:49.287Z,91.50
2022-12-28T05:47:49.219Z,91.36
2022-12-28T05:48:49.212Z,91.26
2022-12-28T05:49:49.237Z,91.82
2022-12-28T05:50:49.190Z,91.46
2022-12-28T05:51:49.192Z,91.26
2022-12-28T05:52:49.166Z,90.95
2022-12-28T05:53:49.173Z,90.84
2022-12-28T05:54:49.163Z,91.05
2022-12-28T05:55:49.126Z,90.64
2022-12-28T05:56:49.137Z,90.74
2022-12-28T05:57:49.108Z,90.84
2022-12-28T05:58:49.120Z,90.95
2022-12-28T05:59:49.110Z,90.84
2022-12-28T06:00:49.094Z,90.95
2022-12-28T06:01:49.239Z,91.16
2022-12-28T06:02:49.165Z,90.74
2022-12-28T06:03:49.040Z,91.26
2022-12-28T06:04:49.067Z,90.80
2022-12-28T06:05:49.031Z,91.16
2022-12-28T06:06:49.042Z,91.16
2022-12-28T06:07:48.994Z,90.84
2022-12-28T06:08:49.017Z,90.80
2022-12-28T06:09:48.972Z,91.05
2022-12-28T06:10:48.968Z,90.84
2022-12-28T06:11:48.961Z,91.56
2022-12-28T06:12:48.969Z,91.11
2022-12-28T06:13:48.929Z,90.95
2022-12-28T06:14:48.931Z,91.05
2022-12-28T06:15:48.937Z,90.95
2022-12-28T06:16:48.956Z,91.26
2022-12-28T06:17:48.891Z,91.01
2022-12-28T06:18:48.908Z,91.01
2022-12-28T06:19:48.901Z,91.83
2022-12-28T06:20:52.415Z,91.26
2022-12-28T06:21:48.843Z,91.88
2022-12-28T06:22:48.839Z,91.42
2022-12-28T06:23:48.851Z,91.42
2022-12-28T06:24:48.833Z,91.46
2022-12-28T06:25:48.797Z,91.73
2022-12-28T06:26:51.072Z,91.77
2022-12-28T06:27:48.780Z,91.11
2022-12-28T06:28:48.777Z,91.46
2022-12-28T06:29:48.778Z,91.67
2022-12-28T06:30:52.546Z,91.94
2022-12-28T06:31:48.768Z,91.73
2022-12-28T06:32:48.726Z,91.88
2022-12-28T06:33:48.713Z,92.29
2022-12-28T06:34:48.722Z,92.35
2022-12-28T06:35:48.711Z,92.70
2022-12-28T06:36:48.670Z,92.66
2022-12-28T06:37:48.665Z,92.04
2022-12-28T06:38:48.698Z,92.55
2022-12-28T06:39:48.639Z,91.63
2022-12-28T06:41:12.314Z,92.55
2022-12-28T06:41:49.620Z,91.73
2022-12-28T06:42:48.608Z,92.04
2022-12-28T06:43:48.628Z,92.04
2022-12-28T06:44:48.582Z,91.73
2022-12-28T06:45:48.591Z,92.04
2022-12-28T06:46:48.603Z,91.73
2022-12-28T06:47:48.549Z,91.83
2022-12-28T06:48:48.543Z,91.94
2022-12-28T06:49:48.532Z,91.52
2022-12-28T06:50:48.543Z,92.35
2022-12-28T06:51:48.533Z,92.25
2022-12-28T06:52:48.521Z,92.97
2022-12-28T06:53:48.502Z,92.76
2022-12-28T06:54:48.489Z,92.55
2022-12-28T06:55:48.486Z,93.07
2022-12-28T06:56:48.477Z,92.86
2022-12-28T06:57:48.462Z,92.66
2022-12-28T06:58:48.426Z,92.76
2022-12-28T06:59:48.416Z,92.86
2022-12-28T07:00:48.461Z,92.14
2022-12-28T07:01:48.610Z,93.49
2022-12-28T07:02:48.417Z,92.97
2022-12-28T07:03:48.375Z,92.86
2022-12-28T07:04:48.391Z,93.18
2022-12-28T07:05:48.375Z,92.76
2022-12-28T07:06:48.338Z,92.76
2022-12-28T07:07:48.329Z,92.86
2022-12-28T07:08:48.318Z,92.97
2022-12-28T07:09:48.303Z,92.86
2022-12-28T07:10:48.291Z,93.07
2022-12-28T07:11:48.306Z,93.18
2022-12-28T07:12:48.281Z,93.07
2022-12-28T07:13:48.260Z,92.97
2022-12-28T07:14:48.264Z,92.86
2022-12-28T07:15:48.263Z,93.38
2022-12-28T07:16:48.266Z,93.28
2022-12-28T07:17:48.253Z,93.28
2022-12-28T07:18:48.226Z,92.72
2022-12-28T07:19:48.199Z,93.07
2022-12-28T07:20:48.187Z,92.97
2022-12-28T07:21:48.218Z,92.86
2022-12-28T07:22:48.168Z,93.18
2022-12-28T07:23:48.147Z,93.07
2022-12-28T07:24:48.136Z,92.97
2022-12-28T07:25:48.125Z,92.86
2022-12-28T07:26:48.151Z,93.07
2022-12-28T07:27:48.130Z,92.86
2022-12-28T07:28:48.178Z,93.07
2022-12-28T07:29:48.080Z,92.76
2022-12-28T07:30:48.097Z,92.97
2022-12-28T07:31:48.093Z,93.18
2022-12-28T07:32:48.052Z,93.18
2022-12-28T07:33:48.067Z,92.97
2022-12-28T07:34:48.043Z,92.97
2022-12-28T07:35:48.071Z,93.18
2022-12-28T07:36:48.020Z,93.18
2022-12-28T07:37:48.011Z,92.82
2022-12-28T07:38:48.022Z,92.82
2022-12-28T07:39:48.012Z,92.66
2022-12-28T07:40:47.963Z,92.82
2022-12-28T07:41:47.955Z,92.51
2022-12-28T07:42:47.939Z,92.66
2022-12-28T07:43:47.963Z,93.03
2022-12-28T07:44:49.297Z,92.21
2022-12-28T07:45:47.973Z,92.61
2022-12-28T07:46:47.925Z,92.82
2022-12-28T07:47:47.879Z,92.10
2022-12-28T07:48:47.882Z,92.51
2022-12-28T07:49:47.861Z,92.51
2022-12-28T07:50:47.892Z,93.13
2022-12-28T07:51:47.847Z,93.44
2022-12-28T07:52:47.829Z,93.24
2022-12-28T07:53:47.813Z,92.72
2022-12-28T07:54:47.821Z,92.51
2022-12-28T07:55:47.791Z,92.72
2022-12-28T07:56:47.798Z,92.31
2022-12-28T07:57:47.801Z,92.61
2022-12-28T07:59:17.605Z,92.72
2022-12-28T08:00:17.600Z,93.34
2022-12-28T08:01:17.690Z,93.03
2022-12-28T08:02:17.763Z,92.72
2022-12-28T08:03:17.629Z,92.57
2022-12-28T08:04:17.578Z,92.21
2022-12-28T08:05:17.550Z,92.16
2022-12-28T08:06:17.580Z,92.10
2022-12-28T08:07:17.545Z,92.99
2022-12-28T08:08:17.526Z,92.51
2022-12-28T08:09:17.511Z,92.37
2022-12-28T08:10:17.484Z,92.47
2022-12-28T08:11:17.495Z,92.37
2022-12-28T08:12:17.459Z,92.78
2022-12-28T08:13:17.451Z,92.57
2022-12-28T08:14:17.458Z,92.47
2022-12-28T08:15:17.435Z,92.06
2022-12-28T08:16:17.427Z,92.57
2022-12-28T08:17:20.970Z,92.78
2022-12-28T08:18:17.411Z,92.57
2022-12-28T08:19:17.404Z,92.78
2022-12-28T08:20:17.369Z,93.30
2022-12-28T08:21:17.385Z,92.99
2022-12-28T08:22:17.367Z,92.88
2022-12-28T08:23:17.345Z,92.78
2022-12-28T08:24:17.353Z,93.09
2022-12-28T08:25:17.327Z,92.68
2022-12-28T08:26:17.315Z,93.19
2022-12-28T08:27:17.319Z,92.78
2022-12-28T08:28:17.297Z,92.99
2022-12-28T08:29:17.364Z,92.99
2022-12-28T08:30:17.264Z,92.88
2022-12-28T08:31:17.311Z,93.19
2022-12-28T08:32:17.257Z,93.19
2022-12-28T08:33:17.247Z,92.68
2022-12-28T08:34:17.241Z,92.06
2022-12-28T08:35:17.214Z,92.22
2022-12-28T08:36:17.226Z,91.91
2022-12-28T08:37:17.184Z,92.84
2022-12-28T08:38:17.207Z,92.43
2022-12-28T08:39:17.188Z,92.33
2022-12-28T08:40:17.209Z,91.19
2022-12-28T08:41:17.158Z,92.33
2022-12-28T08:42:17.168Z,91.60
2022-12-28T08:43:17.124Z,91.81
2022-12-28T08:44:17.129Z,91.15
2022-12-28T08:45:17.137Z,91.56
2022-12-28T08:46:17.288Z,91.46
2022-12-28T08:47:17.145Z,91.19
2022-12-28T08:48:17.065Z,90.73
2022-12-28T08:49:17.056Z,90.53
2022-12-28T08:50:19.935Z,91.40
2022-12-28T08:51:17.074Z,91.56
2022-12-28T08:52:17.015Z,91.36
2022-12-28T08:53:17.006Z,91.56
2022-12-28T08:54:17.071Z,91.25
2022-12-28T08:55:16.993Z,90.84
2022-12-28T08:56:16.991Z,91.15
2022-12-28T08:57:16.972Z,91.36
2022-12-28T08:58:16.947Z,91.42
2022-12-28T08:59:16.957Z,91.11
2022-12-28T09:00:16.920Z,90.59
2022-12-28T09:01:17.070Z,90.69
2022-12-28T09:02:17.029Z,90.39
2022-12-28T09:03:17.088Z,90.39
2022-12-28T09:04:16.878Z,90.59
2022-12-28T09:05:16.872Z,90.69
2022-12-28T09:06:16.860Z,90.18
2022-12-28T09:07:16.865Z,90.69
2022-12-28T09:08:16.835Z,90.49
2022-12-28T09:09:16.838Z,90.49
2022-12-28T09:10:16.952Z,90.39
2022-12-28T09:11:16.807Z,90.49
2022-12-28T09:12:16.797Z,90.24
2022-12-28T09:13:16.789Z,89.97
2022-12-28T09:14:23.242Z,89.97
2022-12-28T09:15:17.763Z,90.08
2022-12-28T09:16:16.831Z,90.39
2022-12-28T09:17:16.762Z,90.59
2022-12-28T09:18:16.732Z,90.86
2022-12-28T09:19:16.795Z,90.59
2022-12-28T09:20:16.711Z,91.27
2022-12-28T09:21:16.699Z,91.17
2022-12-28T09:22:16.710Z,92.14
2022-12-28T09:23:16.725Z,91.62
2022-12-28T09:24:16.719Z,91.83
2022-12-28T09:25:16.657Z,92.86
2022-12-28T09:26:16.657Z,92.96
2022-12-28T09:27:16.623Z,92.44
2022-12-28T09:28:16.614Z,92.65
2022-12-28T09:29:16.686Z,92.96
2022-12-28T09:30:16.593Z,92.14
2022-12-28T09:31:16.669Z,93.06
2022-12-28T09:32:16.601Z,92.34
2022-12-28T09:33:16.560Z,92.34
2022-12-28T09:34:35.423Z,92.44
2022-12-28T09:35:17.554Z,92.03
2022-12-28T09:36:16.525Z,91.89
2022-12-28T09:37:16.535Z,92.10
2022-12-28T09:38:16.505Z,91.58
2022-12-28T09:39:16.580Z,91.78
2022-12-28T09:40:16.477Z,91.78
2022-12-28T09:41:16.500Z,91.68
2022-12-28T09:42:24.578Z,91.58
2022-12-28T09:43:16.443Z,91.47
2022-12-28T09:44:16.476Z,91.06
2022-12-28T09:45:16.428Z,90.86
2022-12-28T09:46:16.444Z,90.75
2022-12-28T09:47:16.437Z,90.66
2022-12-28T09:48:16.407Z,90.86
2022-12-28T09:49:16.464Z,90.66
2022-12-28T09:50:16.379Z,90.75
2022-12-28T09:51:16.367Z,90.86
2022-12-28T09:52:16.388Z,90.51
2022-12-28T09:53:16.355Z,90.66
2022-12-28T09:54:16.328Z,90.55
2022-12-28T09:55:16.325Z,90.55
2022-12-28T09:56:16.324Z,90.75
2022-12-28T09:57:16.302Z,90.20
2022-12-28T09:58:16.300Z,90.41
2022-12-28T09:59:16.323Z,90.45
2022-12-28T10:00:16.974Z,90.03
2022-12-28T10:01:16.377Z,90.03
2022-12-28T10:02:16.294Z,89.73
2022-12-28T10:03:16.256Z,89.89
2022-12-28T10:04:16.237Z,90.41
2022-12-28T10:05:16.211Z,90.09
2022-12-28T10:06:16.190Z,90.34
2022-12-28T10:07:16.191Z,90.51
2022-12-28T10:08:16.215Z,90.00
2022-12-28T10:09:16.176Z,90.61
2022-12-28T10:10:16.178Z,90.41
2022-12-28T10:11:16.162Z,90.55
2022-12-28T10:12:16.151Z,89.73
2022-12-28T10:13:37.424Z,90.55
2022-12-28T10:14:17.152Z,90.30
2022-12-28T10:15:16.106Z,89.73
2022-12-28T10:16:16.166Z,90.41
2022-12-28T10:17:16.106Z,90.45
2022-12-28T10:18:16.100Z,90.14
2022-12-28T10:19:16.074Z,90.51
2022-12-28T10:20:16.063Z,90.51
2022-12-28T10:21:16.031Z,90.41
2022-12-28T10:22:16.023Z,90.30
2022-12-28T10:23:16.026Z,89.79
2022-12-28T10:24:32.614Z,90.34
2022-12-28T10:25:17.088Z,89.48
2022-12-28T10:26:15.973Z,90.09
2022-12-28T10:27:15.970Z,90.09
2022-12-28T10:28:15.955Z,89.58
2022-12-28T10:29:15.972Z,90.09
2022-12-28T10:30:15.974Z,90.16
2022-12-28T10:31:15.992Z,90.06
2022-12-28T10:32:15.907Z,89.54
2022-12-28T10:33:15.897Z,89.44
2022-12-28T10:34:15.907Z,89.23
2022-12-28T10:35:15.908Z,88.82
2022-12-28T10:36:15.866Z,89.03
2022-12-28T10:37:15.997Z,89.44
2022-12-28T10:38:15.846Z,90.16
2022-12-28T10:39:15.834Z,89.13
2022-12-28T10:40:15.837Z,88.82
2022-12-28T10:41:15.811Z,89.13
2022-12-28T10:42:15.804Z,89.03
2022-12-28T10:43:15.796Z,89.23
2022-12-28T10:44:39.416Z,89.54
2022-12-28T10:45:16.929Z,88.51
2022-12-28T10:46:15.798Z,88.72
2022-12-28T10:47:15.750Z,88.41
2022-12-28T10:48:15.749Z,88.72
2022-12-28T10:49:16.023Z,88.89
2022-12-28T10:51:16.717Z,88.68
2022-12-28T10:52:15.684Z,88.68
2022-12-28T10:53:15.681Z,88.68
2022-12-28T10:54:15.723Z,89.03
2022-12-28T10:55:16.700Z,88.78
2022-12-28T10:56:17.385Z,88.57
2022-12-28T10:57:15.632Z,87.96
2022-12-28T10:58:33.582Z,88.37
2022-12-28T10:59:16.688Z,88.57
2022-12-28T11:00:15.601Z,88.17
2022-12-28T11:01:15.799Z,88.27
2022-12-28T11:02:15.753Z,88.47
2022-12-28T11:03:15.622Z,88.12
2022-12-28T11:04:15.575Z,87.65
2022-12-28T11:05:15.537Z,87.85
2022-12-28T11:06:15.554Z,87.65
2022-12-28T11:07:15.520Z,88.53
2022-12-28T11:08:15.515Z,87.82
2022-12-28T11:09:15.536Z,88.17
2022-12-28T11:10:15.484Z,88.12
2022-12-28T11:11:15.475Z,87.96
2022-12-28T11:12:15.465Z,88.17
2022-12-28T11:13:21.482Z,87.96
2022-12-28T11:14:16.582Z,87.92
2022-12-28T11:15:15.429Z,87.92
2022-12-28T11:16:15.502Z,87.92
2022-12-28T11:17:15.428Z,87.82
2022-12-28T11:18:15.423Z,87.51
2022-12-28T11:19:15.417Z,87.92
2022-12-28T11:20:15.470Z,87.71
2022-12-28T11:21:15.363Z,87.82
2022-12-28T11:22:15.377Z,88.02
2022-12-28T11:23:15.340Z,87.82
2022-12-28T11:24:15.331Z,87.51
2022-12-28T11:25:15.345Z,88.02
2022-12-28T11:26:15.313Z,87.71
2022-12-28T11:27:15.295Z,86.89
2022-12-28T11:28:15.285Z,87.61
2022-12-28T11:29:15.300Z,87.61
2022-12-28T11:30:19.262Z,88.08
2022-12-28T11:31:15.306Z,88.02
2022-12-28T11:32:15.267Z,87.77
2022-12-28T11:33:15.265Z,87.51
2022-12-28T11:34:15.244Z,87.88
2022-12-28T11:35:15.225Z,87.82
2022-12-28T11:36:15.198Z,87.10
2022-12-28T11:37:15.184Z,87.51
2022-12-28T11:38:15.192Z,88.08
2022-12-28T11:39:15.163Z,87.57
2022-12-28T11:40:15.148Z,87.67
2022-12-28T11:41:15.161Z,87.98
2022-12-28T11:42:40.747Z,86.85
2022-12-28T11:43:16.119Z,87.43
2022-12-28T11:44:15.130Z,87.43
2022-12-28T11:45:15.121Z,86.65
2022-12-28T11:46:15.135Z,86.40
2022-12-28T11:47:15.080Z,86.50
2022-12-28T11:48:15.070Z,86.30
2022-12-28T11:49:15.077Z,86.50
2022-12-28T11:50:15.138Z,86.19
2022-12-28T11:51:15.030Z,85.58
2022-12-28T11:52:15.134Z,86.50
2022-12-28T11:53:15.131Z,86.19
2022-12-28T11:54:15.007Z,86.40
2022-12-28T11:55:15.002Z,86.19
2022-12-28T11:56:15.002Z,86.09
2022-12-28T11:57:14.979Z,86.24
2022-12-28T11:58:14.956Z,86.81
2022-12-28T11:59:14.942Z,86.30
2022-12-28T12:00:20.094Z,87.46
2022-12-28T12:01:15.944Z,86.33
2022-12-28T12:02:14.965Z,86.85
2022-12-28T12:03:14.965Z,86.91
2022-12-28T12:04:14.884Z,86.40
2022-12-28T12:05:14.873Z,87.32
2022-12-28T12:06:14.903Z,87.05
2022-12-28T12:07:14.907Z,86.91
2022-12-28T12:08:14.837Z,86.65
2022-12-28T12:09:14.830Z,86.40
2022-12-28T12:10:14.850Z,86.09
2022-12-28T12:11:14.826Z,86.24
2022-12-28T12:12:18.232Z,86.09
2022-12-28T12:13:14.786Z,86.81
2022-12-28T12:14:14.771Z,86.33
2022-12-28T12:15:14.757Z,86.40
2022-12-28T12:16:14.870Z,86.13
2022-12-28T12:17:14.740Z,86.40
2022-12-28T12:18:14.764Z,86.65
2022-12-28T12:19:14.718Z,86.50
2022-12-28T12:20:14.708Z,86.81
2022-12-28T12:21:16.206Z,86.85
2022-12-28T12:22:14.714Z,86.95
2022-12-28T12:23:14.693Z,87.32
2022-12-28T12:24:14.668Z,87.32
2022-12-28T12:25:14.644Z,87.16
2022-12-28T12:26:14.655Z,87.43
2022-12-28T12:27:14.623Z,87.84
2022-12-28T12:28:14.617Z,86.75
2022-12-28T12:29:14.820Z,86.33
2022-12-28T12:30:14.621Z,86.81
2022-12-28T12:31:14.651Z,86.60
2022-12-28T12:32:14.570Z,86.60
2022-12-28T12:33:14.562Z,86.65
2022-12-28T12:34:19.297Z,86.65
2022-12-28T12:35:15.536Z,86.54
2022-12-28T12:36:14.567Z,86.65
2022-12-28T12:37:14.513Z,86.75
2022-12-28T12:38:14.521Z,87.16
2022-12-28T12:39:14.509Z,87.05
2022-12-28T12:40:14.493Z,86.65
2022-12-28T12:41:14.480Z,87.46
2022-12-28T12:42:14.476Z,87.32
2022-12-28T12:43:14.450Z,86.81
2022-12-28T12:44:14.457Z,86.60
2022-12-28T12:45:14.434Z,86.44
2022-12-28T12:46:14.498Z,86.44
2022-12-28T12:47:14.420Z,86.65
2022-12-28T12:48:14.399Z,87.05
2022-12-28T12:49:14.477Z,87.37
2022-12-28T12:50:14.381Z,87.37
2022-12-28T12:51:14.384Z,87.26
2022-12-28T12:52:14.377Z,88.08
2022-12-28T12:53:14.327Z,87.77
2022-12-28T12:54:14.342Z,87.88
2022-12-28T12:55:14.310Z,88.08
2022-12-28T12:56:14.335Z,87.51